Station CNII2 - Northerly Isle, IL Image indicating link to RSS feed of recent meteorological observations for station CNII2


Conditions at CNII2 as of
(3:45 am CDT)
0845 GMT on 07/13/2024:
     

Click on the graph icon in the table below to see a time series plot of the last five days of that observation.

5-day plot - Wind Speed Wind Speed (WSPD): 0.0 kts
5-day plot - Wind Gust Wind Gust (GST): 1.0 kts
5-day plot - Air Temperature Air Temperature (ATMP): 68.5 °F
5-day plot - Dew Point Dew Point (DEWP): 66.0 °F
5-day plot - Wind Speed at 10 Meters Wind Speed at 10 meters (WSPD10M): 0.0 kts
5-day plot - Wind Speed at 20 Meters Wind Speed at 20 meters (WSPD20M): 0.0 kts
5-day plot -  Wind Speed, Wind Gust and Atmospheric Pressure Combined plot of Wind Speed, Gust, and Air Pressure
Previous observations
TIME
(CDT)
5-day plot - Wind Direction
WDIR
 
5-day plot - Wind Speed
WSPD
kts
5-day plot - Wind Gust
GST
kts
5-day plot - Wave Height
WVHT
ft
5-day plot - Dominant Wave Period
DPD
sec
5-day plot - Average Wave Period
APD
sec
5-day plot - Mean Wave Direction
MWD
 
5-day plot - Atmospheric Pressure
PRES
in
5-day plot - Pressure Tendency
PTDY
in
5-day plot - Air Temperature
ATMP
°F
5-day plot - Water Temperature
WTMP
°F
5-day plot - Dew Point
DEWP
°F
5-day plot - Salinity
SAL
psu
5-day plot - Visibility
VIS
nmi
5-day plot - Tide (above MLLW)
TIDE
ft
2024-07-13 03:30 am- 0.0 1.0------ 68.7- 66.2---
2024-07-13 03:15 am- 0.0 1.0------ 68.5- 66.0---
2024-07-13 03:00 am- 0.0 1.0------ 68.4- 65.8---
2024-07-13 02:45 am- 0.0 1.0------ 68.7- 66.0---
2024-07-13 02:30 am- 0.0 1.0------ 68.7- 66.2---
2024-07-13 02:15 am- 0.0 1.0------ 68.9- 66.2---
2024-07-13 02:00 am- 0.0 1.0------ 69.1- 66.4---
2024-07-13 01:45 am- 0.0 2.9------ 69.1- 66.4---
2024-07-13 01:30 am- 0.0 2.9------ 69.1- 66.4---
2024-07-13 01:15 am- 0.0 2.9------ 69.4- 66.6---
2024-07-13 01:00 am- 0.0 2.9------ 69.3- 66.4---
2024-07-13 12:45 am- 0.0 2.9------ 69.4- 66.6---
2024-07-13 12:30 amESE 1.0 2.9------ 69.4- 66.6---
2024-07-13 12:15 am- 0.0 2.9------ 69.6- 66.7---
2024-07-13 12:00 amESE 1.0 2.9------ 70.2- 67.1---
2024-07-12 11:45 pm- 0.0 1.9------ 69.3- 66.0---
2024-07-12 11:30 pm- 0.0 1.9------ 69.8- 66.6---
2024-07-12 11:15 pm- 0.0 1.9------ 70.2- 66.9---
2024-07-12 11:00 pmESE 1.9------- 70.2- 66.9---
2024-07-12 10:45 pm E 1.0 1.9------ 69.8- 66.6---
2024-07-12 10:30 pm- 0.0 1.9------ 69.8- 66.6---
2024-07-12 10:15 pm- 0.0 1.9------ 70.0- 66.6---
2024-07-12 10:00 pm E 1.0 1.9------ 70.0- 66.7---
2024-07-12 09:45 pmENE 1.9 2.9------ 69.6- 66.2---
2024-07-12 09:15 pm- 0.0 2.9------ 70.7- 67.1---
2024-07-12 09:00 pm E 1.9 2.9------ 70.7- 66.9---
2024-07-12 08:45 pmENE 1.0 2.9------ 70.2- 66.2---
2024-07-12 08:30 pmENE 1.9 2.9------ 70.7- 66.4---
2024-07-12 08:15 pm- 0.0 2.9------ 71.4- 67.1---
2024-07-12 08:00 pmNNE 2.9 2.9------ 71.8- 67.1---
2024-07-12 07:30 pm- 0.0 6.0------ 72.9- 67.6---
2024-07-12 07:15 pmENE 1.9 6.0------ 73.0- 67.8---
2024-07-12 07:00 pmENE 1.9 6.0------ 73.4- 67.8---
2024-07-12 06:45 pm NE 1.9 7.0------ 73.8- 68.0---
2024-07-12 06:30 pm NE 2.9 7.0------ 73.9- 68.0---
2024-07-12 06:15 pm NE 4.1 7.0------ 74.1- 67.8---
2024-07-12 06:00 pmENE 4.1 7.0------ 74.7- 68.2---
2024-07-12 05:30 pmNNE 5.1 8.0------ 75.7- 68.2---
2024-07-12 05:15 pm NE 5.1 8.0------ 76.3- 67.8---
2024-07-12 05:00 pm N 6.0 8.0------ 76.1- 67.3---
2024-07-12 04:45 pm NE 6.0 7.0------ 76.1- 67.3---
2024-07-12 04:30 pmNNE 7.0 7.0------ 75.9- 66.6---
2024-07-12 04:15 pm N 4.1 7.0------ 76.6- 67.6---
2024-07-12 04:00 pmNNE 2.9 7.0------ 76.8- 67.6---
2024-07-12 03:45 pm N 4.1 8.0------ 77.0- 68.0---
2024-07-12 03:30 pm NE 6.0 8.0------ 76.5- 67.6---
2024-07-12 03:15 pm NE 6.0 8.0------ 76.5- 67.8---
2024-07-12 03:00 pm NE 5.1 8.0------ 76.1- 67.5---
2024-07-12 02:45 pmNNE 6.0 7.0------ 75.9- 66.4---
2024-07-12 02:30 pmNNE 7.0 7.0------ 76.3- 67.5---
2024-07-12 02:15 pmNNE 7.0 7.0------ 75.7- 66.9---
2024-07-12 02:00 pmNNE 6.0 7.0------ 76.1- 67.6---
2024-07-12 01:45 pmNNE 5.1 6.0------ 75.6- 66.4---
2024-07-12 01:30 pmNNE 6.0 6.0------ 75.6- 67.1---
2024-07-12 01:15 pmNNE 7.0------- 74.8- 66.4---
2024-07-12 01:00 pmNNE 5.1 6.0------ 75.2- 67.1---
2024-07-12 12:45 pm NE 6.0 6.0------ 75.4- 66.9---
2024-07-12 12:30 pm NE 4.1 6.0------ 74.5- 66.9---
2024-07-12 12:15 pm E 5.1 6.0------ 75.2- 67.3---
2024-07-12 12:00 pmNNE 6.0 6.0------ 75.0- 66.7---
2024-07-12 11:45 am NE 5.1 7.0------ 74.7- 66.6---
2024-07-12 11:15 amNNE 5.1 7.0------ 74.5- 66.9---
2024-07-12 11:00 am N 5.1 7.0------ 74.1- 66.6---
2024-07-12 10:45 amNNE 4.1 8.0------ 74.1- 67.3---
2024-07-12 10:30 am NE 5.1 8.0------ 73.9- 67.1---
2024-07-12 10:15 am N 4.1 8.0------ 74.1- 67.3---
2024-07-12 10:00 am NE 4.1 8.0------ 73.8- 66.7---
2024-07-12 09:45 amNNE 2.9 8.0------ 74.5- 67.3---
2024-07-12 09:30 amNNE 2.9 8.0------ 74.3- 67.5---
2024-07-12 09:15 am N 6.0 8.0------ 73.9- 66.9---
2024-07-12 09:00 amNNE 6.0 8.0------ 74.1- 66.6---
2024-07-12 08:45 am N 7.0 8.0------ 73.4- 65.7---
2024-07-12 08:30 amNNE 7.0 8.0------ 73.0- 65.8---
2024-07-12 08:15 amNNE 4.1 8.0------ 73.0- 66.2---
2024-07-12 07:45 am N 4.1 8.0------ 71.4- 64.8---
2024-07-12 07:15 am N 7.0 8.0------ 70.7- 64.8---
2024-07-12 06:45 am N 7.0------- 69.8- 64.8---
2024-07-12 06:30 am N 7.0 7.0------ 69.1- 64.8---
2024-07-12 06:15 am N 5.1 7.0------ 68.7- 65.1---
2024-07-12 06:00 am N 6.0 7.0------ 67.8- 64.6---
2024-07-12 05:45 am N 6.0 7.0------ 67.8- 64.8---
2024-07-12 05:30 am N 5.1 7.0------ 67.8- 64.9---
2024-07-12 05:15 am N 5.1 7.0------ 67.8- 64.9---
2024-07-12 05:00 am N 4.1 7.0------ 68.0- 65.1---
2024-07-12 04:45 am N 5.1 6.0------ 67.8- 64.9---
2024-07-12 04:30 amNNW 6.0------- 68.2- 65.3---
2024-07-12 04:15 am N 5.1 6.0------ 68.2- 65.1---
2024-07-12 04:00 am N 6.0 6.0------ 68.2- 65.1---
2024-07-12 03:45 am N 4.1 4.1------ 68.0- 64.9---
2024-07-12 03:30 am N 4.1 4.1------ 68.0- 64.8---
2024-07-12 03:15 am N 6.0------- 68.0- 64.8---
2024-07-12 03:00 am N 5.1------- 67.8- 64.8---